Time;durP1;ratioP1;P1;durP2;ratioP2;P2;SDS_P1;SDS_P2;PMS_P1;PMS_P2;Temp;Humidity;BMP_temperature;BMP_pressure;BME280_temperature;BME280_humidity;BME280_pressure;Samples;Min_cycle;Max_cycle;Signal;HPM_P1;HPM_P2
2021/06/14 00:01:44;;;;;;;1098.67;998.50;;;15.40;99.90;;;;;;6284774;22;20426;-84
2021/06/14 00:04:10;;;;;;;958.10;890.13;;;15.40;99.90;;;;;;6283572;22;20802;-84
2021/06/14 00:06:37;;;;;;;1005.60;937.73;;;15.30;99.90;;;;;;6283675;22;20461;-84
2021/06/14 00:09:06;;;;;;;681.53;643.20;;;15.30;99.90;;;;;;6282568;22;20485;-83
2021/06/14 00:11:34;;;;;;;624.07;590.33;;;15.30;99.90;;;;;;6283097;22;21007;-84
2021/06/14 00:14:01;;;;;;;564.87;533.70;;;15.30;99.90;;;;;;6283287;22;20422;-83
2021/06/14 00:16:28;;;;;;;388.03;368.83;;;15.20;99.90;;;;;;6300573;22;20845;-83
2021/06/14 00:18:55;;;;;;;307.73;291.10;;;15.20;99.90;;;;;;6310677;22;20405;-85
2021/06/14 00:21:22;;;;;;;229.77;216.37;;;15.20;99.90;;;;;;6318466;22;20406;-86
2021/06/14 00:23:49;;;;;;;146.63;136.53;;;15.10;99.90;;;;;;6321139;22;20413;-84
2021/06/14 00:26:17;;;;;;;103.57;95.30;;;15.10;99.90;;;;;;6317344;22;20432;-84
2021/06/14 00:28:45;;;;;;;52.60;42.60;;;15.10;99.90;;;;;;6316763;22;20466;-84
2021/06/14 00:31:12;;;;;;;51.83;38.77;;;15.10;99.90;;;;;;6316346;22;20434;-83
2021/06/14 00:33:40;;;;;;;45.43;24.90;;;15.00;99.90;;;;;;6315551;22;20409;-83
2021/06/14 00:36:08;;;;;;;44.63;32.33;;;15.00;99.90;;;;;;6315193;22;20432;-83
2021/06/14 00:38:36;;;;;;;39.97;20.53;;;15.00;99.90;;;;;;6315388;22;20438;-85
2021/06/14 00:41:03;;;;;;;37.10;19.73;;;14.90;99.90;;;;;;6315252;22;20420;-85
2021/06/14 00:43:32;;;;;;;44.10;28.17;;;14.90;99.90;;;;;;6316188;22;20469;-83
2021/06/14 00:46:01;;;;;;;28.47;6.43;;;14.90;99.90;;;;;;6314934;22;20430;-83
2021/06/14 00:48:28;;;;;;;28.20;7.00;;;14.90;99.90;;;;;;6314108;22;20465;-84
2021/06/14 00:50:57;;;;;;;26.93;5.77;;;14.80;99.90;;;;;;6315094;22;20449;-84
2021/06/14 00:53:26;;;;;;;26.60;6.73;;;14.80;99.90;;;;;;6314683;22;20448;-83
2021/06/14 00:55:53;;;;;;;27.13;7.07;;;14.70;99.90;;;;;;6314684;22;20501;-83
2021/06/14 00:58:21;;;;;;;25.60;5.37;;;14.70;99.90;;;;;;6312913;22;20442;-84
2021/06/14 01:00:48;;;;;;;26.10;5.77;;;14.70;99.90;;;;;;6313375;22;20481;-83
2021/06/14 01:03:17;;;;;;;22.90;5.90;;;14.70;99.90;;;;;;6318718;22;20511;-86
2021/06/14 01:05:46;;;;;;;22.80;5.10;;;14.70;99.90;;;;;;6321960;22;20903;-83
2021/06/14 01:08:13;;;;;;;22.03;5.37;;;14.60;99.90;;;;;;6316277;22;20441;-85
2021/06/14 01:10:41;;;;;;;21.60;5.00;;;14.60;99.90;;;;;;6315629;22;20439;-84
2021/06/14 01:13:17;;;;;;;21.77;4.23;;;14.60;99.90;;;;;;6315867;22;20481;-85
2021/06/14 01:15:58;;;;;;;19.20;4.20;;;14.50;99.90;;;;;;6325677;22;20421;-85
2021/06/14 01:18:33;;;;;;;20.23;4.43;;;14.50;99.90;;;;;;6318307;22;20763;-85
2021/06/14 01:21:12;;;;;;;19.30;3.80;;;14.50;99.90;;;;;;6317293;22;20396;-83
2021/06/14 01:24:10;;;;;;;16.93;4.50;;;14.50;99.90;;;;;;6318053;22;20719;-85
2021/06/14 01:26:43;;;;;;;19.40;4.20;;;14.40;99.90;;;;;;6316972;22;20421;-85
2021/06/14 01:29:13;;;;;;;19.43;4.43;;;14.40;99.90;;;;;;6316411;22;20768;-85
2021/06/14 01:31:42;;;;;;;15.90;4.30;;;14.30;99.90;;;;;;6316168;22;20753;-85
2021/06/14 01:34:10;;;;;;;16.90;4.47;;;14.30;99.90;;;;;;6318469;22;20433;-85
2021/06/14 01:36:38;;;;;;;15.60;4.33;;;14.30;99.90;;;;;;6319435;22;20453;-86
2021/06/14 01:39:07;;;;;;;16.47;4.47;;;14.30;99.90;;;;;;6318764;22;20505;-86
2021/06/14 01:41:36;;;;;;;16.40;4.30;;;14.30;99.90;;;;;;6320007;22;20394;-86
2021/06/14 01:44:04;;;;;;;14.43;4.57;;;14.30;99.90;;;;;;6319902;22;20433;-86
2021/06/14 01:46:37;;;;;;;17.50;3.47;;;14.20;99.90;;;;;;6319612;22;20481;-85
2021/06/14 01:49:06;;;;;;;14.40;3.90;;;14.20;99.90;;;;;;6317558;22;20927;-85
2021/06/14 01:51:36;;;;;;;17.23;4.00;;;14.20;99.90;;;;;;6315976;22;20800;-85
2021/06/14 01:54:04;;;;;;;16.57;4.23;;;14.20;99.90;;;;;;6315180;22;20437;-86
2021/06/14 01:56:34;;;;;;;14.83;3.97;;;14.20;99.90;;;;;;6317600;22;20509;-85
2021/06/14 01:59:02;;;;;;;13.70;3.60;;;14.20;99.90;;;;;;6316974;22;20490;-85
2021/06/14 02:01:30;;;;;;;15.47;3.80;;;14.10;99.90;;;;;;6314779;22;20398;-85
2021/06/14 02:03:59;;;;;;;13.70;4.77;;;14.10;99.90;;;;;;6316092;22;20414;-85
2021/06/14 02:06:28;;;;;;;13.73;4.10;;;14.10;99.90;;;;;;6317798;22;20422;-86
2021/06/14 02:08:55;;;;;;;13.40;3.30;;;14.10;99.90;;;;;;6317642;22;20433;-86
2021/06/14 02:11:24;;;;;;;12.27;3.57;;;14.10;99.90;;;;;;6319485;22;20434;-85
2021/06/14 02:13:51;;;;;;;12.67;3.43;;;14.00;99.90;;;;;;6319394;22;20457;-87
2021/06/14 02:16:19;;;;;;;14.80;3.50;;;14.00;99.90;;;;;;6318741;22;20533;-85
2021/06/14 02:18:47;;;;;;;14.77;4.20;;;14.00;99.90;;;;;;6318423;22;20468;-86
2021/06/14 02:21:15;;;;;;;15.73;4.63;;;14.00;99.90;;;;;;6318744;22;20421;-86
2021/06/14 02:23:42;;;;;;;13.53;4.00;;;14.00;99.90;;;;;;6319039;22;20414;-86
2021/06/14 02:26:10;;;;;;;12.97;4.47;;;14.00;99.90;;;;;;6318363;22;20433;-85
2021/06/14 02:28:37;;;;;;;14.53;3.30;;;14.00;99.90;;;;;;6318873;22;20410;-86
2021/06/14 02:31:05;;;;;;;13.80;3.30;;;13.90;99.90;;;;;;6319330;22;20884;-86
2021/06/14 02:33:32;;;;;;;17.97;4.97;;;13.90;99.90;;;;;;6318674;22;20394;-87
2021/06/14 02:35:59;;;;;;;18.20;4.30;;;13.90;99.90;;;;;;6319194;22;20484;-85
2021/06/14 02:38:28;;;;;;;12.73;4.00;;;13.90;99.90;;;;;;6318280;22;21005;-86
2021/06/14 02:40:56;;;;;;;14.10;3.90;;;13.80;99.90;;;;;;6317077;22;20898;-85
2021/06/14 02:43:24;;;;;;;13.93;4.27;;;13.80;99.90;;;;;;6317837;22;20394;-85
2021/06/14 02:45:52;;;;;;;13.30;3.70;;;13.80;99.90;;;;;;6317229;22;20440;-85
2021/06/14 02:48:20;;;;;;;12.60;3.30;;;13.80;99.90;;;;;;6315926;22;20421;-87
2021/06/14 02:50:49;;;;;;;14.37;4.03;;;13.70;99.90;;;;;;6316751;22;20410;-85
2021/06/14 02:53:17;;;;;;;12.40;3.70;;;13.70;99.90;;;;;;6315729;22;20445;-85
2021/06/14 02:55:53;;;;;;;13.23;4.47;;;13.70;99.90;;;;;;6314878;22;20829;-84
2021/06/14 02:58:26;;;;;;;12.13;3.90;;;13.70;99.90;;;;;;6315054;22;20425;-84
2021/06/14 03:00:53;;;;;;;11.00;3.23;;;13.70;99.90;;;;;;6315702;22;20448;-85
2021/06/14 03:03:21;;;;;;;10.77;3.90;;;13.70;99.90;;;;;;6315709;22;20448;-85
2021/06/14 03:05:48;;;;;;;12.10;4.00;;;13.70;99.90;;;;;;6314724;22;20425;-85
2021/06/14 03:08:16;;;;;;;11.77;4.17;;;13.70;99.90;;;;;;6315746;22;20484;-85
2021/06/14 03:10:44;;;;;;;10.40;3.40;;;13.70;99.90;;;;;;6314683;22;20408;-84
2021/06/14 03:13:13;;;;;;;12.93;3.77;;;13.60;99.90;;;;;;6315316;22;20413;-85
2021/06/14 03:15:40;;;;;;;11.83;4.03;;;13.60;99.90;;;;;;6314498;22;20505;-84
2021/06/14 03:18:09;;;;;;;10.67;4.03;;;13.60;99.90;;;;;;6316523;22;20441;-86
2021/06/14 03:20:37;;;;;;;11.50;4.13;;;13.60;99.90;;;;;;6320345;22;20424;-86
2021/06/14 03:23:04;;;;;;;12.53;3.97;;;13.60;99.90;;;;;;6320980;22;20429;-86
2021/06/14 03:25:31;;;;;;;13.03;4.37;;;13.60;99.90;;;;;;6320125;22;20438;-86
2021/06/14 03:27:59;;;;;;;12.23;4.20;;;13.60;99.90;;;;;;6316237;22;20406;-85
2021/06/14 03:30:30;;;;;;;11.90;3.40;;;13.60;99.90;;;;;;6314622;22;20405;-86
2021/06/14 03:32:57;;;;;;;13.03;4.27;;;13.60;99.90;;;;;;6315547;22;20394;-85
2021/06/14 03:35:25;;;;;;;11.40;4.20;;;13.60;99.90;;;;;;6315692;22;20508;-85
2021/06/14 03:37:52;;;;;;;11.20;4.40;;;13.60;99.90;;;;;;6314991;22;20441;-85
2021/06/14 03:40:20;;;;;;;10.73;4.00;;;13.60;99.90;;;;;;6315574;22;20409;-85
2021/06/14 03:42:48;;;;;;;12.37;4.40;;;13.60;99.90;;;;;;6317140;22;20471;-84
2021/06/14 03:45:16;;;;;;;11.80;3.97;;;13.60;99.90;;;;;;6324791;22;20425;-84
2021/06/14 03:47:45;;;;;;;14.80;4.60;;;13.60;99.90;;;;;;6317633;22;20404;-85
2021/06/14 03:50:12;;;;;;;12.20;4.47;;;13.60;99.90;;;;;;6317946;22;20413;-85
2021/06/14 03:52:41;;;;;;;11.70;4.30;;;13.60;99.90;;;;;;6290457;22;20445;-85
2021/06/14 03:55:11;;;;;;;12.70;4.30;;;13.60;99.90;;;;;;6316986;22;20401;-84
2021/06/14 03:57:37;;;;;;;11.80;3.97;;;13.70;99.90;;;;;;6324369;22;20437;-86
2021/06/14 04:00:07;;;;;;;14.93;3.90;;;13.70;99.90;;;;;;6336044;22;20430;-84
2021/06/14 04:02:34;;;;;;;11.37;3.63;;;13.70;99.90;;;;;;6310368;22;20382;-84
2021/06/14 04:05:02;;;;;;;11.53;3.73;;;13.80;99.90;;;;;;6332259;22;20413;-84
2021/06/14 04:07:29;;;;;;;12.07;3.63;;;13.80;99.90;;;;;;6317877;22;20410;-84
2021/06/14 04:09:59;;;;;;;11.43;3.70;;;13.80;99.90;;;;;;6317860;22;21003;-84
2021/06/14 04:12:26;;;;;;;11.40;3.53;;;13.90;99.90;;;;;;6318123;22;20405;-86
2021/06/14 04:14:53;;;;;;;12.37;3.67;;;14.00;99.90;;;;;;6318480;22;20474;-85
2021/06/14 04:17:20;;;;;;;10.97;4.30;;;14.00;99.90;;;;;;6323314;22;20482;-85
2021/06/14 04:19:47;;;;;;;11.97;3.90;;;14.10;99.90;;;;;;6328418;22;20453;-86
2021/06/14 04:22:15;;;;;;;11.20;3.90;;;14.10;99.90;;;;;;6320502;22;20402;-85
2021/06/14 04:24:42;;;;;;;12.60;4.63;;;14.20;99.90;;;;;;6321177;22;20473;-85
2021/06/14 04:27:10;;;;;;;11.05;3.53;;;14.20;99.90;;;;;;6318292;22;20296;-83
2021/06/14 04:29:37;;;;;;;11.90;4.30;;;14.30;99.90;;;;;;6316414;22;20683;-81
2021/06/14 04:32:05;;;;;;;13.30;4.23;;;14.40;99.90;;;;;;6318313;22;20401;-81
2021/06/14 04:34:32;;;;;;;12.77;3.33;;;14.40;99.90;;;;;;6317571;22;20946;-83
2021/06/14 04:36:59;;;;;;;10.03;2.80;;;14.50;99.90;;;;;;6321844;22;20415;-79
2021/06/14 04:39:27;;;;;;;10.37;3.60;;;15.30;99.90;;;;;;6321930;22;20465;-79
2021/06/14 04:41:55;;;;;;;11.30;3.40;;;15.50;99.90;;;;;;6320093;22;20485;-77
2021/06/14 04:44:23;;;;;;;12.27;4.40;;;15.60;99.90;;;;;;6318433;22;20413;-79
2021/06/14 04:46:50;;;;;;;12.17;3.60;;;15.60;99.90;;;;;;6326317;22;20504;-78
2021/06/14 04:49:17;;;;;;;12.47;3.60;;;15.50;99.90;;;;;;6312655;22;20410;-78
2021/06/14 04:51:43;;;;;;;10.23;3.60;;;15.50;99.90;;;;;;6312335;22;20553;-78
2021/06/14 04:54:10;;;;;;;10.93;3.67;;;15.60;99.90;;;;;;6313173;22;20442;-78
2021/06/14 04:56:38;;;;;;;11.60;3.67;;;15.60;99.90;;;;;;6312385;22;20471;-78
2021/06/14 04:59:05;;;;;;;14.23;3.80;;;15.60;99.90;;;;;;6312583;22;20493;-78
2021/06/14 05:01:32;;;;;;;13.70;4.43;;;15.70;99.90;;;;;;6311970;22;20792;-78
2021/06/14 05:03:59;;;;;;;10.27;3.47;;;15.70;99.90;;;;;;6312106;22;20424;-78
2021/06/14 05:06:26;;;;;;;12.47;4.70;;;15.70;99.90;;;;;;6313251;22;20448;-78
2021/06/14 05:08:52;;;;;;;10.80;3.67;;;15.80;99.90;;;;;;6312239;22;20424;-78
2021/06/14 05:11:19;;;;;;;12.37;4.63;;;15.80;99.90;;;;;;6312744;22;20489;-78
2021/06/14 05:13:47;;;;;;;13.27;3.80;;;15.90;99.90;;;;;;6312363;22;20406;-78
2021/06/14 05:16:14;;;;;;;15.67;4.80;;;16.00;99.90;;;;;;6311302;22;20489;-84
2021/06/14 05:18:41;;;;;;;12.60;3.50;;;16.00;99.90;;;;;;6309759;22;20528;-83
2021/06/14 05:21:08;;;;;;;12.43;4.13;;;16.10;99.90;;;;;;6312120;22;20500;-83
2021/06/14 05:23:35;;;;;;;14.17;3.70;;;16.20;99.90;;;;;;6311162;22;20406;-84
2021/06/14 05:26:02;;;;;;;11.63;3.70;;;16.30;99.90;;;;;;6310661;22;20931;-83
2021/06/14 05:28:29;;;;;;;11.20;3.80;;;16.30;99.90;;;;;;6311163;22;20418;-83
2021/06/14 05:30:57;;;;;;;13.63;3.80;;;16.40;99.90;;;;;;6308930;22;20441;-87
2021/06/14 05:33:24;;;;;;;11.00;3.17;;;16.50;99.90;;;;;;6310611;22;20490;-84
2021/06/14 05:35:51;;;;;;;11.80;3.37;;;16.60;99.90;;;;;;6305351;22;21280;-85
2021/06/14 05:38:18;;;;;;;12.50;3.40;;;16.70;99.90;;;;;;6304280;22;20857;-85
2021/06/14 05:40:45;;;;;;;13.00;3.23;;;16.80;99.90;;;;;;6307331;22;20406;-83
2021/06/14 05:43:12;;;;;;;12.40;3.40;;;16.90;99.90;;;;;;6307793;22;20919;-84
2021/06/14 05:45:39;;;;;;;14.50;3.30;;;17.00;99.90;;;;;;6308458;22;20462;-86
2021/06/14 05:48:09;;;;;;;15.03;3.80;;;17.10;99.90;;;;;;6310122;22;20489;-85
2021/06/14 05:50:36;;;;;;;14.40;3.63;;;17.20;99.90;;;;;;6308230;22;20402;-87
2021/06/14 05:53:03;;;;;;;13.73;3.77;;;17.40;99.90;;;;;;6308802;22;20420;-85
2021/06/14 05:55:30;;;;;;;16.23;3.40;;;17.40;99.90;;;;;;6307055;22;20466;-85
2021/06/14 05:57:57;;;;;;;15.60;2.83;;;17.50;99.90;;;;;;6307416;22;20903;-84
2021/06/14 06:00:24;;;;;;;16.20;2.77;;;17.60;99.90;;;;;;6314403;22;20453;-85
2021/06/14 06:02:51;;;;;;;14.70;2.80;;;17.80;99.90;;;;;;6319815;22;20409;-83
2021/06/14 06:05:19;;;;;;;18.67;4.00;;;17.90;99.90;;;;;;6322619;22;20497;-83
2021/06/14 06:07:46;;;;;;;18.80;3.23;;;18.00;99.90;;;;;;6320641;22;20406;-83
2021/06/14 06:10:14;;;;;;;27.30;3.97;;;18.20;99.90;;;;;;6315133;22;20489;-83
2021/06/14 06:12:41;;;;;;;951.73;880.50;;;18.30;99.90;;;;;;6314335;22;20490;-85
2021/06/14 06:15:11;;;;;;;1065.03;982.47;;;18.40;99.90;;;;;;6316288;22;20452;-85
2021/06/14 06:17:38;;;;;;;1999.90;999.90;;;18.50;99.90;;;;;;6313967;22;20449;-84
2021/06/14 06:20:07;;;;;;;1999.90;999.90;;;18.60;99.90;;;;;;6315648;22;20446;-83
2021/06/14 06:22:36;;;;;;;1999.90;999.90;;;18.60;99.90;;;;;;6314759;22;20414;-84
2021/06/14 06:25:04;;;;;;;1999.90;999.90;;;18.80;99.90;;;;;;6316798;22;20895;-84
2021/06/14 06:27:31;;;;;;;1999.90;999.90;;;18.90;99.90;;;;;;6316200;22;20504;-83
2021/06/14 06:29:58;;;;;;;1999.90;999.90;;;19.00;99.90;;;;;;6318935;22;20406;-84
2021/06/14 06:32:25;;;;;;;1999.90;999.90;;;19.10;99.90;;;;;;6316499;22;20485;-84
2021/06/14 06:34:52;;;;;;;709.57;669.37;;;19.30;99.90;;;;;;6317821;22;20410;-84
2021/06/14 06:37:22;;;;;;;619.03;585.63;;;19.40;99.90;;;;;;6313237;22;20458;-84
2021/06/14 06:39:52;;;;;;;283.53;266.83;;;19.50;99.90;;;;;;6315285;22;20476;-84
2021/06/14 06:42:19;;;;;;;520.70;493.50;;;19.60;99.90;;;;;;6314221;22;20413;-83
2021/06/14 06:44:46;;;;;;;27.03;3.00;;;19.70;99.90;;;;;;6317687;22;20465;-85
2021/06/14 06:47:13;;;;;;;33.77;3.60;;;19.70;99.90;;;;;;6317681;22;20501;-84
2021/06/14 06:49:40;;;;;;;25.40;2.70;;;19.80;99.90;;;;;;6316595;22;20489;-83
2021/06/14 06:52:07;;;;;;;13.83;2.67;;;19.90;99.90;;;;;;6318575;22;20394;-84
2021/06/14 06:54:34;;;;;;;15.67;2.70;;;20.00;99.90;;;;;;6316625;22;20489;-86
2021/06/14 06:57:02;;;;;;;730.63;690.17;;;20.10;99.90;;;;;;6307281;22;20433;-87
2021/06/14 06:59:32;;;;;;;60.63;45.97;;;20.20;99.90;;;;;;6303968;22;20449;-88
2021/06/14 07:02:25;;;;;;;22.50;2.77;;;20.30;99.90;;;;;;6311269;22;20496;-89
2021/06/14 07:04:52;;;;;;;18.47;3.00;;;20.40;99.90;;;;;;6305044;22;20476;-87
2021/06/14 07:07:19;;;;;;;14.73;2.50;;;20.50;99.90;;;;;;6304452;22;20450;-89
2021/06/14 07:09:45;;;;;;;9.70;2.73;;;20.60;99.90;;;;;;6308789;22;20494;-87
2021/06/14 07:12:15;;;;;;;10.33;2.60;;;20.70;99.90;;;;;;6304514;22;20520;-86
2021/06/14 07:14:42;;;;;;;8.60;2.40;;;20.80;99.90;;;;;;6303790;22;20410;-87
2021/06/14 07:17:09;;;;;;;8.90;2.93;;;21.00;99.90;;;;;;6303811;22;20440;-87
2021/06/14 07:19:36;;;;;;;10.33;3.23;;;21.10;99.90;;;;;;6306755;22;20540;-87
2021/06/14 07:22:03;;;;;;;7.07;2.53;;;21.10;99.90;;;;;;6306938;22;20513;-87
2021/06/14 07:24:30;;;;;;;7.50;2.80;;;21.10;99.90;;;;;;6307416;22;20406;-87
2021/06/14 07:26:57;;;;;;;9.80;2.57;;;21.20;99.90;;;;;;6306832;22;20483;-87
2021/06/14 07:29:25;;;;;;;7.40;2.50;;;21.30;99.90;;;;;;6305877;22;20454;-86
2021/06/14 07:31:52;;;;;;;12.60;3.00;;;21.30;99.90;;;;;;6280148;22;20408;-87
2021/06/14 07:34:19;;;;;;;7.77;2.37;;;21.40;99.90;;;;;;6306184;22;20417;-87
2021/06/14 07:36:46;;;;;;;7.97;2.73;;;21.60;99.90;;;;;;6307434;22;20430;-85
2021/06/14 07:39:13;;;;;;;7.83;2.70;;;21.70;99.90;;;;;;6309361;22;20442;-86
2021/06/14 07:41:39;;;;;;;13.23;2.50;;;21.80;99.90;;;;;;6309507;22;20748;-87
2021/06/14 07:44:06;;;;;;;7.33;2.33;;;21.90;99.90;;;;;;6308945;22;20925;-87
2021/06/14 07:46:34;;;;;;;6.93;2.70;;;22.00;99.90;;;;;;6300425;22;20504;-87
2021/06/14 07:49:02;;;;;;;9.07;2.63;;;22.10;99.90;;;;;;6310654;22;20400;-88
2021/06/14 07:51:29;;;;;;;9.40;3.73;;;22.20;99.90;;;;;;6311772;22;20436;-87
2021/06/14 07:53:55;;;;;;;7.97;3.00;;;22.40;99.90;;;;;;6325381;22;20425;-86
2021/06/14 07:56:23;;;;;;;11.53;3.60;;;22.50;99.90;;;;;;6308753;22;20444;-84
2021/06/14 07:58:50;;;;;;;7.70;2.57;;;22.50;99.90;;;;;;6307821;22;20433;-85
2021/06/14 08:01:17;;;;;;;7.77;2.50;;;22.70;99.90;;;;;;6308333;22;20481;-85
2021/06/14 08:03:47;;;;;;;8.70;3.00;;;22.80;99.90;;;;;;6307886;22;20473;-85
2021/06/14 08:06:14;;;;;;;7.50;3.20;;;23.00;99.90;;;;;;6305580;22;20509;-85
2021/06/14 08:08:42;;;;;;;7.70;3.17;;;23.00;99.90;;;;;;6305980;22;20492;-86
2021/06/14 08:11:09;;;;;;;6.80;2.80;;;23.30;99.90;;;;;;6306513;22;20410;-87
2021/06/14 08:13:36;;;;;;;7.30;2.83;;;23.40;99.90;;;;;;6308733;22;20727;-86
2021/06/14 08:16:08;;;;;;;7.77;2.70;;;23.40;99.90;;;;;;6306224;22;20968;-85
2021/06/14 08:18:40;;;;;;;9.03;2.90;;;23.60;99.90;;;;;;6305845;22;20443;-87
2021/06/14 08:21:19;;;;;;;8.07;2.53;;;23.70;99.90;;;;;;6306422;22;20545;-85
2021/06/14 08:26:31;;;;;;;6.90;2.80;;;24.20;99.90;;;;;;6304685;22;20416;-87
2021/06/14 08:28:59;;;;;;;7.80;2.50;;;24.40;99.90;;;;;;6306160;22;20448;-89
2021/06/14 08:31:27;;;;;;;10.77;3.40;;;24.30;99.90;;;;;;6306347;22;20409;-87
2021/06/14 08:33:55;;;;;;;8.17;2.97;;;24.30;99.90;;;;;;6305577;22;20528;-88
2021/06/14 08:36:24;;;;;;;7.97;2.87;;;24.60;99.90;;;;;;6305535;22;20441;-86
2021/06/14 08:38:51;;;;;;;6.80;2.50;;;24.60;99.90;;;;;;6304538;22;20566;-86
2021/06/14 08:41:18;;;;;;;9.53;3.00;;;24.80;99.90;;;;;;6305837;22;20467;-87
2021/06/14 08:43:45;;;;;;;7.43;3.17;;;24.90;99.90;;;;;;6306252;22;20919;-87
2021/06/14 08:46:13;;;;;;;6.90;3.23;;;25.10;99.90;;;;;;6304036;22;20434;-87
2021/06/14 08:48:42;;;;;;;6.20;2.70;;;25.30;99.90;;;;;;6304711;22;20417;-86
2021/06/14 08:51:09;;;;;;;7.27;2.43;;;25.50;99.90;;;;;;6305775;22;20406;-86
2021/06/14 08:53:38;;;;;;;7.03;2.70;;;25.60;99.90;;;;;;6304509;22;20414;-86
2021/06/14 08:56:07;;;;;;;8.15;3.13;;;25.80;99.90;;;;;;6304198;22;20427;-88
2021/06/14 08:58:34;;;;;;;8.57;2.97;;;25.70;99.90;;;;;;6304179;22;20211;-86
2021/06/14 09:01:01;;;;;;;8.70;3.40;;;25.80;99.90;;;;;;6305166;22;21032;-87
2021/06/14 09:03:29;;;;;;;7.00;3.33;;;25.90;99.90;;;;;;6303993;22;20733;-84
2021/06/14 09:05:57;;;;;;;6.27;2.80;;;26.20;99.90;;;;;;6304179;22;21219;-85
2021/06/14 09:08:24;;;;;;;6.30;2.67;;;26.30;99.90;;;;;;6304731;22;20806;-85
2021/06/14 09:10:54;;;;;;;7.40;2.40;;;26.20;99.90;;;;;;6288590;22;20406;-86
2021/06/14 09:13:23;;;;;;;7.67;2.70;;;26.30;99.90;;;;;;6301667;22;20430;-84
2021/06/14 09:15:54;;;;;;;8.10;2.60;;;26.30;99.90;;;;;;6307052;22;20817;-87
2021/06/14 09:18:23;;;;;;;7.27;2.97;;;26.30;99.90;;;;;;6307521;22;20409;-85
2021/06/14 09:20:59;;;;;;;7.17;2.60;;;26.50;99.90;;;;;;6307246;22;20531;-86
2021/06/14 09:23:38;;;;;;;7.20;2.50;;;26.50;99.90;;;;;;6306411;22;20748;-86
2021/06/14 09:26:06;;;;;;;8.80;2.73;;;26.80;99.90;;;;;;6306645;22;20430;-87
2021/06/14 09:28:33;;;;;;;7.07;2.40;;;27.00;99.90;;;;;;6308911;22;20501;-85
2021/06/14 09:31:12;;;;;;;7.20;2.60;;;27.00;99.90;;;;;;6311609;22;20434;-85
2021/06/14 09:33:43;;;;;;;9.33;2.60;;;26.90;97.10;;;;;;6309256;22;20394;-88
2021/06/14 09:36:11;;;;;;;6.60;2.20;;;27.00;99.90;;;;;;6304829;22;20437;-86
2021/06/14 09:38:37;;;;;;;8.53;3.53;;;27.10;97.70;;;;;;6305748;22;20409;-88
2021/06/14 09:41:11;;;;;;;6.80;2.90;;;27.10;98.30;;;;;;6331202;22;20505;-88
2021/06/14 09:43:40;;;;;;;6.67;2.77;;;27.40;99.90;;;;;;6326761;22;20887;-88
2021/06/14 09:46:20;;;;;;;11.20;2.67;;;27.80;98.10;;;;;;6303971;22;20472;-88
2021/06/14 09:48:48;;;;;;;9.27;2.87;;;27.80;99.90;;;;;;6305027;22;20402;-88
2021/06/14 09:51:15;;;;;;;6.83;2.40;;;28.00;98.80;;;;;;6305443;22;20410;-88
2021/06/14 09:53:44;;;;;;;6.30;2.40;;;28.30;99.90;;;;;;6306931;22;20422;-88
2021/06/14 09:56:18;;;;;;;7.20;2.90;;;28.50;96.80;;;;;;6309028;22;20509;-86
2021/06/14 09:58:46;;;;;;;5.93;2.50;;;29.00;99.90;;;;;;6310342;22;20391;-86
2021/06/14 10:01:13;;;;;;;7.77;2.80;;;28.80;95.20;;;;;;6307721;22;21018;-87
2021/06/14 10:03:43;;;;;;;7.10;2.50;;;28.80;94.40;;;;;;6307296;22;20433;-87
2021/06/14 10:06:10;;;;;;;9.20;3.20;;;29.00;96.10;;;;;;6307528;22;20433;-86
2021/06/14 10:08:37;;;;;;;8.47;3.17;;;29.40;95.10;;;;;;6306259;22;20429;-87
2021/06/14 10:11:09;;;;;;;7.77;2.97;;;29.40;92.20;;;;;;6309497;22;20409;-84
2021/06/14 10:13:41;;;;;;;8.27;2.73;;;29.50;91.60;;;;;;6318195;22;20455;-86
2021/06/14 10:16:11;;;;;;;7.47;3.27;;;29.40;91.70;;;;;;6309461;22;20444;-85
2021/06/14 10:18:39;;;;;;;6.60;2.80;;;29.80;93.20;;;;;;6310729;22;20404;-84
2021/06/14 10:21:10;;;;;;;8.40;2.53;;;30.30;92.90;;;;;;6310519;22;20434;-86
2021/06/14 10:23:37;;;;;;;7.00;2.77;;;30.20;90.30;;;;;;6311689;22;20437;-86
2021/06/14 10:26:06;;;;;;;6.50;2.57;;;30.90;90.40;;;;;;6312799;22;20432;-85
2021/06/14 10:28:33;;;;;;;6.70;2.80;;;31.40;90.00;;;;;;6324374;22;20398;-86
2021/06/14 10:31:02;;;;;;;8.20;3.07;;;31.40;81.90;;;;;;6329074;22;20393;-86
2021/06/14 10:33:30;;;;;;;6.10;2.67;;;32.00;89.20;;;;;;6331005;22;20418;-85
2021/06/14 10:35:57;;;;;;;8.53;2.67;;;32.20;85.70;;;;;;6328085;22;20430;-86
2021/06/14 10:38:25;;;;;;;6.63;2.70;;;32.30;78.40;;;;;;6330073;22;20413;-85
2021/06/14 10:40:54;;;;;;;7.30;2.67;;;32.10;72.80;;;;;;6330072;22;20446;-86
2021/06/14 10:43:28;;;;;;;5.60;2.00;;;31.80;73.90;;;;;;6332540;22;20465;-86
2021/06/14 10:45:57;;;;;;;12.33;2.87;;;32.10;87.50;;;;;;6332530;22;20410;-90
2021/06/14 10:48:28;;;;;;;8.60;2.57;;;32.10;75.40;;;;;;6331807;22;20958;-88
2021/06/14 10:50:58;;;;;;;8.00;2.95;;;31.80;76.90;;;;;;6330457;22;20393;-82
2021/06/14 10:53:26;;;;;;;6.97;2.87;;;31.60;73.60;;;;;;6330568;22;20183;-81
2021/06/14 10:55:54;;;;;;;7.73;2.83;;;32.00;79.00;;;;;;6331551;22;20441;-85
2021/06/14 10:58:22;;;;;;;10.93;3.10;;;32.30;76.70;;;;;;6331720;22;20402;-82
2021/06/14 11:01:00;;;;;;;8.53;3.13;;;32.40;75.60;;;;;;6332399;22;20497;-83
2021/06/14 11:03:43;;;;;;;11.90;3.23;;;32.20;82.70;;;;;;6331444;22;20390;-83
2021/06/14 11:06:26;;;;;;;9.70;3.00;;;32.80;80.30;;;;;;6332291;22;20418;-85
2021/06/14 11:09:01;;;;;;;6.90;2.50;;;34.10;72.60;;;;;;6331911;22;20871;-84
2021/06/14 11:11:28;;;;;;;8.03;2.70;;;34.70;70.80;;;;;;6332049;22;20397;-83
2021/06/14 11:13:55;;;;;;;6.47;2.90;;;35.00;71.80;;;;;;6331896;22;20401;-85
2021/06/14 11:16:23;;;;;;;6.07;2.63;;;35.60;67.80;;;;;;6332551;22;20414;-84
2021/06/14 11:19:02;;;;;;;5.77;2.63;;;35.60;69.00;;;;;;6332673;22;20394;-83
2021/06/14 11:21:29;;;;;;;8.33;2.83;;;35.60;66.00;;;;;;6333024;22;20426;-84
2021/06/14 11:24:07;;;;;;;6.97;2.40;;;36.10;60.80;;;;;;6332866;22;20633;-84
2021/06/14 11:26:34;;;;;;;5.97;2.57;;;37.00;66.70;;;;;;6333431;22;20493;-83
2021/06/14 11:29:11;;;;;;;6.67;2.27;;;36.80;59.00;;;;;;6331194;22;20389;-82
2021/06/14 11:31:38;;;;;;;6.43;2.93;;;36.80;56.90;;;;;;6327934;22;20397;-82
2021/06/14 11:34:18;;;;;;;7.37;2.70;;;36.70;59.10;;;;;;6314733;22;20445;-82
2021/06/14 11:36:56;;;;;;;5.47;2.40;;;36.40;58.20;;;;;;6317368;22;20504;-83
2021/06/14 11:39:24;;;;;;;6.93;2.37;;;36.70;59.80;;;;;;6310235;22;20455;-82
2021/06/14 11:41:53;;;;;;;8.30;3.27;;;36.90;59.70;;;;;;6316892;22;20883;-83
2021/06/14 11:44:23;;;;;;;6.20;2.97;;;36.70;61.10;;;;;;6315364;22;20416;-83
2021/06/14 11:46:51;;;;;;;8.07;2.83;;;36.80;57.80;;;;;;6318852;22;20425;-82
2021/06/14 11:49:20;;;;;;;6.67;2.60;;;36.70;58.40;;;;;;6318949;22;20413;-83
2021/06/14 11:51:46;;;;;;;5.23;1.60;;;36.20;59.60;;;;;;6320129;22;20452;-81
2021/06/14 11:54:18;;;;;;;7.00;2.17;;;36.30;55.00;;;;;;6321019;22;20410;-84
2021/06/14 11:56:58;;;;;;;7.20;2.90;;;36.30;61.60;;;;;;6318801;22;20418;-84
2021/06/14 11:59:31;;;;;;;6.47;2.37;;;36.20;54.80;;;;;;6325936;22;20389;-84
2021/06/14 12:01:57;;;;;;;6.90;2.67;;;36.50;56.60;;;;;;6332751;22;20483;-84
2021/06/14 12:04:26;;;;;;;5.97;2.67;;;36.90;62.20;;;;;;6333195;22;20397;-84
2021/06/14 12:06:53;;;;;;;18.33;2.67;;;36.90;57.40;;;;;;6333806;22;20429;-84
2021/06/14 12:09:25;;;;;;;6.30;1.97;;;36.80;57.50;;;;;;6333769;22;20402;-84
2021/06/14 12:11:58;;;;;;;6.00;2.80;;;36.80;56.60;;;;;;6333966;22;20398;-82
2021/06/14 12:14:25;;;;;;;6.17;1.93;;;37.10;55.40;;;;;;6334169;22;20402;-82
2021/06/14 12:16:58;;;;;;;5.40;2.10;;;37.30;56.70;;;;;;6332492;22;20500;-82
2021/06/14 12:19:28;;;;;;;5.93;2.07;;;37.70;53.60;;;;;;6330956;22;20412;-80
2021/06/14 12:21:56;;;;;;;6.23;2.60;;;37.30;58.30;;;;;;6330454;22;20426;-82
2021/06/14 12:24:24;;;;;;;6.37;2.83;;;37.40;55.00;;;;;;6320039;22;20406;-84
2021/06/14 12:26:58;;;;;;;7.37;2.60;;;37.60;49.50;;;;;;6321855;22;20425;-81
2021/06/14 12:29:25;;;;;;;5.23;2.07;;;38.20;54.20;;;;;;6318454;22;20421;-82
2021/06/14 12:32:02;;;;;;;6.13;1.90;;;38.40;54.70;;;;;;6320506;22;20433;-82
2021/06/14 12:34:31;;;;;;;6.33;2.20;;;38.60;53.90;;;;;;6321222;22;20397;-82
2021/06/14 12:37:00;;;;;;;7.57;2.03;;;38.90;52.80;;;;;;6321809;22;20435;-82
2021/06/14 12:39:26;;;;;;;4.90;1.90;;;39.30;53.40;;;;;;6321380;22;20406;-82
2021/06/14 12:41:53;;;;;;;6.30;2.30;;;39.10;49.10;;;;;;6321370;22;20450;-84
2021/06/14 12:44:20;;;;;;;9.97;2.30;;;39.40;51.70;;;;;;6324020;22;20434;-83
2021/06/14 12:46:48;;;;;;;7.10;2.40;;;39.70;49.70;;;;;;6320973;22;20544;-82
2021/06/14 12:49:22;;;;;;;7.57;2.30;;;40.20;48.40;;;;;;6321369;22;20429;-82